Time;durP1;ratioP1;P1;durP2;ratioP2;P2;SDS_P1;SDS_P2;PMS_P1;PMS_P2;Temp;Humidity;BMP_temperature;BMP_pressure;BME280_temperature;BME280_humidity;BME280_pressure;Samples;Min_cycle;Max_cycle;Signal;HPM_P1;HPM_P2
2023/07/15 00:02:17;;;;;;;9.73;8.90;;;;;;;27.36;50.69;95284.41;6284939;27;109236;-67
2023/07/15 00:05:24;;;;;;;10.57;9.50;;;;;;;27.24;51.10;95280.91;6281030;27;109872;-74
2023/07/15 00:08:27;;;;;;;10.70;9.70;;;;;;;27.03;51.23;95264.81;6276729;27;109053;-69
2023/07/15 00:11:34;;;;;;;10.20;9.07;;;;;;;27.10;51.26;95284.66;6256349;27;109248;-68
2023/07/15 00:14:39;;;;;;;11.30;9.70;;;;;;;27.14;51.90;95287.47;6284739;27;109604;-69
2023/07/15 00:17:42;;;;;;;10.37;9.30;;;;;;;27.05;51.69;95292.94;6285450;27;110323;-69
2023/07/15 00:20:46;;;;;;;10.77;9.53;;;;;;;27.14;51.76;95290.16;6264865;27;109195;-68
2023/07/15 00:23:53;;;;;;;10.03;9.23;;;;;;;27.06;52.50;95288.34;6278783;27;109272;-68
2023/07/15 00:26:58;;;;;;;10.57;9.67;;;;;;;27.10;52.29;95289.25;6271172;27;109038;-67
2023/07/15 00:30:04;;;;;;;11.10;10.10;;;;;;;26.99;51.90;95286.19;6260949;27;109237;-67
2023/07/15 00:33:13;;;;;;;11.47;10.47;;;;;;;27.00;52.66;95287.75;6259353;27;109112;-68
2023/07/15 00:36:17;;;;;;;11.50;10.30;;;;;;;27.05;52.18;95297.50;6256992;27;108821;-67
2023/07/15 00:39:20;;;;;;;11.20;9.83;;;;;;;27.09;51.80;95295.75;6262027;27;109580;-67
2023/07/15 00:43:02;;;;;;;11.10;9.77;;;;;;;27.21;52.13;95295.75;6272978;27;109135;-67
2023/07/15 00:46:48;;;;;;;11.73;10.60;;;;;;;27.27;51.21;95304.44;6272995;27;109899;-69
2023/07/15 00:49:52;;;;;;;10.80;9.90;;;;;;;27.24;51.37;95295.13;6259820;27;111561;-69
2023/07/15 00:52:55;;;;;;;10.63;9.73;;;;;;;27.27;51.71;95297.16;6280315;27;110277;-68
2023/07/15 00:55:58;;;;;;;10.43;9.47;;;;;;;27.32;51.11;95299.63;6275999;27;109697;-69
2023/07/15 00:59:03;;;;;;;11.07;10.07;;;;;;;27.34;51.55;95292.00;6273047;27;109032;-69
2023/07/15 01:02:08;;;;;;;11.47;10.37;;;;;;;27.41;51.14;95294.16;6262761;27;109130;-68
2023/07/15 01:05:12;;;;;;;11.00;9.87;;;;;;;27.40;50.82;95304.13;6262120;27;109159;-68
2023/07/15 01:08:15;;;;;;;10.73;9.87;;;;;;;27.34;51.32;95302.75;6258471;27;109186;-68
2023/07/15 01:11:19;;;;;;;10.23;9.33;;;;;;;27.33;50.88;95298.50;6263511;27;109644;-68
2023/07/15 01:14:23;;;;;;;10.13;9.33;;;;;;;27.31;51.05;95308.03;6263991;27;109132;-68
2023/07/15 01:17:28;;;;;;;10.03;9.03;;;;;;;27.29;51.31;95308.38;6262883;27;109966;-68
2023/07/15 01:20:32;;;;;;;11.17;10.23;;;;;;;27.30;51.45;95309.94;6263706;27;109158;-71
2023/07/15 01:23:37;;;;;;;9.93;9.03;;;;;;;27.22;51.87;95307.28;6274279;27;109165;-71
2023/07/15 01:26:40;;;;;;;10.23;9.17;;;;;;;27.23;51.56;95298.13;6288898;27;109194;-71
2023/07/15 01:29:44;;;;;;;9.97;9.17;;;;;;;27.25;51.26;95302.06;6277132;27;109268;-71
2023/07/15 01:32:47;;;;;;;10.37;9.57;;;;;;;27.29;50.69;95307.56;6269095;27;109089;-71
2023/07/15 01:35:51;;;;;;;9.73;8.93;;;;;;;27.33;50.91;95297.72;6266657;27;109194;-72
2023/07/15 01:38:55;;;;;;;10.10;9.10;;;;;;;27.31;50.93;95308.81;6288404;27;109162;-71
2023/07/15 01:41:58;;;;;;;10.17;9.10;;;;;;;27.24;51.05;95316.63;6263454;27;109072;-71
2023/07/15 01:45:03;;;;;;;9.50;8.70;;;;;;;27.07;52.13;95311.41;6267206;27;109117;-71
2023/07/15 01:48:07;;;;;;;10.17;9.27;;;;;;;27.07;51.21;95312.19;6263928;27;109078;-71
2023/07/15 01:51:10;;;;;;;10.50;9.60;;;;;;;27.11;51.26;95315.00;6246613;27;108966;-69
2023/07/15 01:54:15;;;;;;;11.93;9.87;;;;;;;27.07;51.29;95312.19;6271878;27;109115;-71
2023/07/15 01:57:18;;;;;;;9.80;9.00;;;;;;;27.06;51.02;95313.31;6273461;27;109377;-71
2023/07/15 02:00:21;;;;;;;10.20;9.20;;;;;;;27.14;51.05;95314.34;6253916;27;109207;-71
2023/07/15 02:03:24;;;;;;;9.90;9.10;;;;;;;27.12;51.40;95314.66;6266593;27;109914;-71
2023/07/15 02:06:27;;;;;;;10.93;10.03;;;;;;;27.14;51.32;95311.66;6254185;27;109165;-71
2023/07/15 02:09:34;;;;;;;10.37;9.57;;;;;;;27.12;51.01;95313.88;6260933;27;109081;-71
2023/07/15 02:12:37;;;;;;;10.40;9.50;;;;;;;27.14;50.63;95306.28;6273871;27;109032;-71
2023/07/15 02:15:40;;;;;;;10.13;9.23;;;;;;;27.05;51.08;95303.69;6250101;27;109448;-71
2023/07/15 02:18:44;;;;;;;10.50;9.60;;;;;;;27.11;50.68;95309.63;6258890;27;109135;-70
2023/07/15 02:21:47;;;;;;;9.80;8.40;;;;;;;27.18;51.03;95318.69;6242903;27;109374;-72
2023/07/15 02:24:51;;;;;;;10.23;9.40;;;;;;;27.23;50.55;95312.34;6260415;27;109247;-70
2023/07/15 02:27:54;;;;;;;10.73;9.73;;;;;;;27.21;51.14;95311.88;6278690;27;109182;-71
2023/07/15 02:30:58;;;;;;;10.53;9.63;;;;;;;27.23;50.83;95315.03;6265539;27;109325;-69
2023/07/15 02:34:01;;;;;;;10.50;9.50;;;;;;;27.19;50.89;95316.81;6263839;27;109041;-69
2023/07/15 02:37:04;;;;;;;10.37;9.40;;;;;;;27.15;50.44;95313.22;6251571;27;109952;-69
2023/07/15 02:40:10;;;;;;;10.73;9.73;;;;;;;27.09;51.11;95309.19;6257700;27;109057;-69
2023/07/15 02:43:13;;;;;;;10.43;9.53;;;;;;;27.07;50.49;95306.81;6265477;27;109066;-69
2023/07/15 02:46:16;;;;;;;9.33;8.53;;;;;;;27.14;51.03;95312.44;6268177;27;109411;-69
2023/07/15 02:49:20;;;;;;;10.33;9.50;;;;;;;27.19;50.39;95314.13;6261814;27;109129;-69
2023/07/15 02:52:24;;;;;;;10.13;9.23;;;;;;;27.18;50.29;95307.97;6251755;27;109026;-69
2023/07/15 02:55:30;;;;;;;10.17;9.27;;;;;;;27.19;50.36;95316.81;6284595;27;109531;-69
2023/07/15 02:58:34;;;;;;;11.30;9.40;;;;;;;27.15;50.46;95313.22;6279256;27;110028;-72
2023/07/15 03:01:37;;;;;;;10.50;9.60;;;;;;;27.14;50.11;95322.41;6274692;27;109319;-68
2023/07/15 03:04:40;;;;;;;10.20;9.20;;;;;;;26.96;51.26;95310.25;6285413;27;109002;-69
2023/07/15 03:07:45;;;;;;;11.37;10.27;;;;;;;27.00;50.48;95317.31;6280309;27;108670;-70
2023/07/15 03:10:50;;;;;;;10.83;9.93;;;;;;;27.04;50.87;95317.44;6258504;27;109988;-69
2023/07/15 03:13:54;;;;;;;11.83;10.83;;;;;;;27.05;50.25;95317.13;6261748;27;109461;-69
2023/07/15 03:16:57;;;;;;;12.60;11.30;;;;;;;27.03;51.15;95318.53;6260793;27;109259;-69
2023/07/15 03:20:00;;;;;;;13.40;12.27;;;;;;;27.08;50.88;95323.72;6261780;27;109034;-69
2023/07/15 03:23:03;;;;;;;13.43;12.33;;;;;;;27.10;50.67;95319.59;6249927;27;109027;-69
2023/07/15 03:26:08;;;;;;;13.03;11.57;;;;;;;27.11;50.65;95325.75;6261533;27;109127;-69
2023/07/15 03:29:12;;;;;;;13.33;11.80;;;;;;;27.06;51.19;95324.06;6278392;27;109624;-68
2023/07/15 03:32:15;;;;;;;14.73;13.27;;;;;;;26.99;51.53;95325.69;6256211;27;109527;-70
2023/07/15 03:35:18;;;;;;;26.67;24.17;;;;;;;27.05;51.09;95329.75;6251395;27;110735;-69
2023/07/15 03:38:21;;;;;;;29.67;27.27;;;;;;;27.07;51.57;95332.91;6273350;27;108913;-69
2023/07/15 03:41:26;;;;;;;19.63;17.77;;;;;;;27.07;51.06;95325.63;6275380;27;109257;-67
2023/07/15 03:44:29;;;;;;;21.60;19.73;;;;;;;27.00;51.37;95332.63;6272146;27;109074;-66
2023/07/15 03:47:33;;;;;;;16.27;14.77;;;;;;;26.83;52.11;95323.63;6262899;27;109933;-66
2023/07/15 03:50:36;;;;;;;13.20;11.87;;;;;;;26.57;53.26;95323.03;6262665;27;109306;-66
2023/07/15 03:53:40;;;;;;;13.67;12.40;;;;;;;26.51;53.19;95327.00;6273350;27;109063;-66
2023/07/15 03:56:44;;;;;;;12.27;11.07;;;;;;;26.37;53.06;95323.78;6245200;27;108791;-67
2023/07/15 03:59:47;;;;;;;12.60;11.30;;;;;;;26.37;53.03;95327.25;6279892;27;109118;-67
2023/07/15 04:02:54;;;;;;;13.70;12.37;;;;;;;26.45;53.38;95322.94;6265427;27;111757;-67
2023/07/15 04:05:57;;;;;;;13.37;12.07;;;;;;;26.53;52.90;95324.78;6272952;27;109005;-67
2023/07/15 04:09:00;;;;;;;18.67;16.83;;;;;;;26.57;52.59;95323.03;6268217;27;109334;-67
2023/07/15 04:12:08;;;;;;;26.90;24.30;;;;;;;26.69;52.06;95339.22;6271461;27;109462;-67
2023/07/15 04:15:11;;;;;;;26.77;24.27;;;;;;;26.86;51.55;95328.31;6263460;27;109035;-67
2023/07/15 04:18:16;;;;;;;23.83;21.73;;;;;;;26.90;51.59;95333.06;6268681;27;109079;-67
2023/07/15 04:21:19;;;;;;;23.93;21.73;;;;;;;26.94;51.55;95339.34;6261105;27;109162;-67
2023/07/15 04:24:22;;;;;;;33.87;31.07;;;;;;;26.99;51.31;95347.97;6269817;27;109170;-67
2023/07/15 04:27:27;;;;;;;31.40;28.70;;;;;;;27.04;51.94;95352.34;6260554;27;109309;-67
2023/07/15 04:30:30;;;;;;;23.67;21.53;;;;;;;27.09;51.36;95354.84;6272209;27;110678;-67
2023/07/15 04:33:33;;;;;;;20.77;19.07;;;;;;;27.12;51.63;95364.94;6256878;27;109127;-67
2023/07/15 04:36:36;;;;;;;20.47;18.60;;;;;;;27.15;51.31;95364.25;6271822;27;109395;-66
2023/07/15 04:39:40;;;;;;;18.47;16.73;;;;;;;27.17;51.33;95370.88;6260309;27;109043;-66
2023/07/15 04:42:44;;;;;;;17.10;15.67;;;;;;;27.17;51.66;95370.09;6265413;27;109119;-67
2023/07/15 04:45:48;;;;;;;18.03;16.17;;;;;;;27.12;51.82;95368.41;6259251;27;110465;-67
2023/07/15 04:48:52;;;;;;;14.07;12.80;;;;;;;27.05;51.52;95368.16;6269919;27;109052;-66
2023/07/15 04:51:55;;;;;;;16.23;14.73;;;;;;;27.03;51.85;95361.53;6281201;27;109089;-71
2023/07/15 04:54:58;;;;;;;15.40;14.03;;;;;;;27.08;52.16;95364.81;6264726;27;109232;-71
2023/07/15 04:58:03;;;;;;;21.03;17.47;;;;;;;27.12;51.47;95367.63;6265641;27;110178;-72
2023/07/15 05:01:07;;;;;;;28.77;26.40;;;;;;;27.08;52.47;95366.72;6254042;27;110092;-71
2023/07/15 05:04:10;;;;;;;21.53;19.53;;;;;;;27.08;52.57;95361.34;6275853;27;109091;-68
2023/07/15 05:07:13;;;;;;;15.90;14.37;;;;;;;27.04;52.69;95371.16;6269552;27;109103;-71
2023/07/15 05:10:16;;;;;;;17.13;15.83;;;;;;;27.10;53.10;95369.84;6261675;27;109200;-72
2023/07/15 05:13:21;;;;;;;15.20;13.83;;;;;;;27.12;51.89;95370.31;6237802;27;109519;-71
2023/07/15 05:16:25;;;;;;;16.17;14.60;;;;;;;27.00;53.01;95375.63;6231140;27;109327;-72
2023/07/15 05:19:28;;;;;;;18.43;16.03;;;;;;;27.14;52.30;95368.06;6258805;27;109029;-71
2023/07/15 05:22:31;;;;;;;15.80;14.40;;;;;;;27.22;51.34;95369.09;6259251;27;109090;-71
2023/07/15 05:25:35;;;;;;;15.60;14.00;;;;;;;27.26;51.83;95368.16;6259275;27;110208;-71
2023/07/15 05:28:40;;;;;;;21.20;19.30;;;;;;;27.27;52.01;95368.94;6266713;27;109416;-75
2023/07/15 05:31:45;;;;;;;19.27;17.43;;;;;;;27.26;51.61;95360.09;6258623;27;109019;-73
2023/07/15 05:34:49;;;;;;;17.07;15.47;;;;;;;27.31;52.21;95362.56;6268766;27;109431;-72
2023/07/15 05:37:52;;;;;;;16.80;15.00;;;;;;;27.32;53.08;95363.34;6267485;27;109308;-72
2023/07/15 05:40:56;;;;;;;17.10;15.70;;;;;;;27.35;51.93;95360.78;6263259;27;109028;-71
2023/07/15 05:44:01;;;;;;;15.43;14.20;;;;;;;27.41;51.64;95364.84;6265489;27;109033;-71
2023/07/15 05:47:05;;;;;;;15.50;14.00;;;;;;;27.54;52.21;95365.63;6263126;27;109139;-71
2023/07/15 05:50:09;;;;;;;14.73;13.37;;;;;;;27.63;52.14;95370.94;6258808;27;110041;-72
2023/07/15 05:53:12;;;;;;;15.30;14.10;;;;;;;27.66;52.19;95375.63;6272492;27;109174;-69
2023/07/15 05:56:15;;;;;;;15.93;14.17;;;;;;;27.65;51.99;95374.06;6264118;27;109269;-72
2023/07/15 05:59:21;;;;;;;24.43;15.30;;;;;;;27.65;53.19;95385.59;6251489;27;109257;-74
2023/07/15 06:02:26;;;;;;;20.00;17.93;;;;;;;27.72;52.96;95380.47;6253316;27;109836;-72
2023/07/15 06:05:30;;;;;;;16.10;14.60;;;;;;;27.78;53.39;95383.72;6262912;27;109103;-70
2023/07/15 06:08:33;;;;;;;14.83;13.27;;;;;;;27.76;53.75;95385.97;6263263;27;109129;-70
2023/07/15 06:11:36;;;;;;;15.43;13.27;;;;;;;27.84;52.78;95376.22;6261659;27;109284;-70
2023/07/15 06:14:41;;;;;;;14.53;13.13;;;;;;;27.90;52.50;95374.94;6253161;27;109127;-70
2023/07/15 06:17:44;;;;;;;15.03;13.63;;;;;;;27.91;52.74;95371.91;6261165;27;109215;-70
2023/07/15 06:20:48;;;;;;;15.80;14.20;;;;;;;27.93;52.32;95360.81;6262170;27;109104;-70
2023/07/15 06:23:51;;;;;;;14.47;13.17;;;;;;;27.90;52.72;95364.97;6252634;27;109262;-69
2023/07/15 06:26:55;;;;;;;13.70;11.87;;;;;;;27.96;52.64;95358.22;6261568;27;109437;-72
2023/07/15 06:30:00;;;;;;;12.47;11.40;;;;;;;27.93;52.27;95356.22;6261621;27;109040;-70
2023/07/15 06:33:03;;;;;;;12.90;11.60;;;;;;;27.99;52.15;95352.16;6262346;27;109278;-71
2023/07/15 06:36:07;;;;;;;15.90;13.30;;;;;;;28.11;51.93;95353.31;6253085;27;109722;-70
2023/07/15 06:39:10;;;;;;;17.80;16.03;;;;;;;28.21;51.47;95358.22;6262139;27;109110;-71
2023/07/15 06:42:14;;;;;;;15.20;13.50;;;;;;;28.10;51.98;95355.22;6262681;27;108900;-71
2023/07/15 06:45:20;;;;;;;14.70;13.17;;;;;;;28.00;52.28;95353.72;6262378;27;108847;-71
2023/07/15 06:48:23;;;;;;;13.37;12.13;;;;;;;28.11;51.40;95359.47;6251341;27;109303;-70
2023/07/15 06:51:26;;;;;;;18.93;12.77;;;;;;;28.14;51.78;95358.00;6262059;27;109008;-71
2023/07/15 06:54:32;;;;;;;13.17;11.97;;;;;;;28.17;51.55;95355.41;6261805;27;109100;-72
2023/07/15 06:57:35;;;;;;;13.50;11.93;;;;;;;28.02;51.99;95354.19;6255932;27;109024;-69
2023/07/15 07:00:40;;;;;;;15.40;11.70;;;;;;;28.17;51.67;95357.31;6256159;27;109918;-71
2023/07/15 07:03:45;;;;;;;13.67;12.30;;;;;;;28.16;50.90;95358.44;6262339;27;109656;-71
2023/07/15 07:06:48;;;;;;;13.10;11.90;;;;;;;28.12;50.87;95352.19;6262021;27;109053;-71
2023/07/15 07:09:51;;;;;;;14.17;11.63;;;;;;;28.14;51.16;95358.78;6251518;27;109394;-70
2023/07/15 07:12:54;;;;;;;12.77;11.57;;;;;;;28.34;50.45;95359.78;6262259;27;109310;-70
2023/07/15 07:15:59;;;;;;;11.63;10.63;;;;;;;28.25;50.19;95369.91;6262425;27;109032;-70
2023/07/15 07:19:02;;;;;;;11.90;10.70;;;;;;;28.31;49.94;95365.84;6260052;27;110544;-69
2023/07/15 07:22:05;;;;;;;11.00;9.93;;;;;;;28.39;50.52;95362.22;6226393;27;109165;-70
2023/07/15 07:25:10;;;;;;;12.60;11.30;;;;;;;28.47;50.04;95355.97;6236613;27;109020;-70
2023/07/15 07:28:13;;;;;;;12.83;11.70;;;;;;;28.51;50.45;95356.88;6239635;27;109028;-70
2023/07/15 07:31:18;;;;;;;12.70;10.93;;;;;;;28.53;49.81;95356.53;6258997;27;109316;-68
2023/07/15 07:34:22;;;;;;;11.67;10.67;;;;;;;28.63;49.57;95347.97;6255497;27;109129;-70
2023/07/15 07:37:25;;;;;;;12.23;11.00;;;;;;;28.71;49.67;95343.56;6261534;27;108876;-70
2023/07/15 07:40:28;;;;;;;13.57;11.70;;;;;;;28.76;49.52;95340.66;6261465;27;109053;-70
2023/07/15 07:43:32;;;;;;;14.50;11.40;;;;;;;28.12;49.13;95338.72;6255837;27;109286;-70
2023/07/15 07:46:36;;;;;;;17.67;11.87;;;;;;;27.08;47.65;95339.84;6286282;27;109549;-71
2023/07/15 07:49:40;;;;;;;16.63;11.67;;;;;;;26.58;46.58;95346.06;6268101;27;109078;-68
2023/07/15 07:52:43;;;;;;;16.47;12.40;;;;;;;26.11;45.74;95334.69;6261254;27;109850;-67
2023/07/15 07:55:46;;;;;;;16.37;12.93;;;;;;;26.10;45.04;95339.28;6250527;27;109075;-67
2023/07/15 07:58:54;;;;;;;13.80;12.30;;;;;;;26.08;43.53;95335.34;6269536;27;109054;-67
2023/07/15 08:01:59;;;;;;;19.53;16.60;;;;;;;25.72;43.23;95333.13;6258910;27;110821;-66
2023/07/15 08:05:02;;;;;;;19.17;17.23;;;;;;;25.50;43.01;95332.22;6274326;27;109093;-67
2023/07/15 08:08:05;;;;;;;19.43;17.30;;;;;;;25.57;42.00;95337.91;6248336;27;109361;-68
2023/07/15 08:11:08;;;;;;;17.80;15.97;;;;;;;25.45;41.07;95334.31;6259334;27;108974;-66
2023/07/15 08:14:11;;;;;;;19.53;17.60;;;;;;;25.48;40.91;95339.81;6237398;27;110676;-66
2023/07/15 08:17:16;;;;;;;20.00;18.10;;;;;;;25.14;41.55;95335.28;6245146;27;109231;-67
2023/07/15 08:20:19;;;;;;;22.90;20.77;;;;;;;24.98;40.62;95326.97;6243363;27;109218;-63
2023/07/15 08:23:22;;;;;;;22.50;20.30;;;;;;;24.90;40.38;95335.81;6245980;27;110900;-64
2023/07/15 08:26:26;;;;;;;24.33;22.03;;;;;;;24.63;40.18;95336.88;6259352;27;109303;-63
2023/07/15 08:29:29;;;;;;;25.60;23.20;;;;;;;24.79;39.94;95335.31;6250837;27;110155;-63
2023/07/15 08:32:33;;;;;;;25.90;23.70;;;;;;;24.91;39.55;95336.59;6262345;27;109341;-64
2023/07/15 08:35:36;;;;;;;25.43;23.20;;;;;;;24.75;38.87;95334.41;6285250;27;109049;-63
2023/07/15 08:38:40;;;;;;;27.33;24.90;;;;;;;24.61;39.38;95339.06;6279611;27;109004;-62
2023/07/15 08:41:43;;;;;;;28.60;26.30;;;;;;;24.61;38.83;95340.97;6258394;27;109071;-63
2023/07/15 08:44:47;;;;;;;27.97;25.27;;;;;;;24.45;38.78;95335.28;6258316;27;109109;-63
2023/07/15 08:47:52;;;;;;;26.40;24.20;;;;;;;24.52;38.91;95324.09;6259693;27;109040;-63
2023/07/15 08:50:58;;;;;;;26.47;23.90;;;;;;;24.41;39.28;95329.78;6248954;27;111998;-63
2023/07/15 08:54:02;;;;;;;25.97;23.87;;;;;;;24.46;39.07;95326.94;6254101;27;109393;-63
2023/07/15 08:57:07;;;;;;;27.53;24.87;;;;;;;24.27;38.62;95325.69;6260691;27;109401;-64
2023/07/15 09:00:12;;;;;;;29.90;27.40;;;;;;;24.41;39.01;95324.44;6260990;27;110039;-64
2023/07/15 09:03:16;;;;;;;34.00;31.07;;;;;;;24.84;39.69;95315.63;6249002;27;109348;-65
2023/07/15 09:06:19;;;;;;;35.90;32.90;;;;;;;25.00;40.98;95324.75;6255700;27;108954;-64
2023/07/15 09:09:32;;;;;;;37.47;34.27;;;;;;;25.16;41.51;95332.28;6259257;27;108983;-65
2023/07/15 09:12:35;;;;;;;37.30;34.10;;;;;;;25.20;41.88;95317.94;6274586;27;109188;-65
2023/07/15 09:15:38;;;;;;;37.93;34.70;;;;;;;25.08;42.49;95320.50;6267431;27;108979;-65
2023/07/15 09:18:44;;;;;;;40.67;37.07;;;;;;;25.06;42.60;95312.78;6259185;27;109140;-64
2023/07/15 09:21:52;;;;;;;48.40;43.93;;;;;;;24.88;43.27;95321.94;6260186;27;109345;-65
2023/07/15 09:25:03;;;;;;;48.20;44.00;;;;;;;25.09;42.38;95320.19;6250180;27;108969;-65
2023/07/15 09:28:09;;;;;;;48.13;43.87;;;;;;;25.13;42.20;95312.28;6259868;27;108795;-70
2023/07/15 09:31:22;;;;;;;45.43;41.57;;;;;;;25.14;42.28;95313.06;6261989;27;109200;-67
2023/07/15 09:34:27;;;;;;;44.60;40.90;;;;;;;25.17;41.81;95317.78;6253496;27;109183;-67
2023/07/15 09:37:31;;;;;;;43.70;40.20;;;;;;;24.75;42.24;95318.34;6260608;27;109254;-69
2023/07/15 09:40:41;;;;;;;46.13;42.40;;;;;;;25.00;41.95;95308.69;6267635;27;109049;-68
2023/07/15 09:43:46;;;;;;;44.10;40.60;;;;;;;24.70;41.52;95299.78;6248828;27;109191;-67
2023/07/15 09:46:50;;;;;;;43.30;39.70;;;;;;;24.68;41.30;95299.28;6251612;27;108992;-66
2023/07/15 09:49:54;;;;;;;41.83;38.13;;;;;;;24.79;41.30;95295.19;6264605;27;109033;-66
2023/07/15 09:53:00;;;;;;;41.50;37.93;;;;;;;24.97;41.26;95292.47;6267353;27;109045;-66
2023/07/15 09:56:06;;;;;;;40.70;37.30;;;;;;;24.77;41.57;95296.59;6276333;27;109032;-64
2023/07/15 09:59:16;;;;;;;42.03;38.47;;;;;;;24.56;40.11;95292.97;6267163;27;109241;-66
2023/07/15 10:02:33;;;;;;;41.67;38.17;;;;;;;24.26;39.57;95289.34;6273667;27;109149;-66
2023/07/15 10:05:38;;;;;;;42.43;38.97;;;;;;;24.17;39.27;95279.41;6272436;27;109014;-66
2023/07/15 10:08:42;;;;;;;38.90;35.80;;;;;;;24.07;39.29;95276.25;6263399;27;109046;-66
2023/07/15 10:11:45;;;;;;;39.80;36.60;;;;;;;23.95;39.15;95278.72;6254255;27;109712;-66
2023/07/15 10:14:49;;;;;;;40.63;37.33;;;;;;;23.89;38.84;95272.75;6268649;27;108994;-66
2023/07/15 10:17:52;;;;;;;37.77;34.47;;;;;;;23.87;38.61;95280.28;6264539;27;109258;-66
2023/07/15 10:20:58;;;;;;;37.93;34.73;;;;;;;23.80;38.42;95282.59;6261633;27;109289;-66
2023/07/15 10:24:10;;;;;;;37.40;34.40;;;;;;;23.72;38.18;95281.50;6261348;27;109153;-66
2023/07/15 10:27:14;;;;;;;35.40;32.50;;;;;;;23.72;38.73;95278.81;6266023;27;109284;-67
2023/07/15 10:30:23;;;;;;;34.70;31.80;;;;;;;23.71;38.40;95282.59;6264129;27;109300;-67
2023/07/15 10:33:26;;;;;;;34.97;31.97;;;;;;;23.49;38.81;95274.63;6256589;27;110348;-67
2023/07/15 10:36:39;;;;;;;33.00;30.27;;;;;;;23.60;38.70;95273.28;6268516;27;109817;-66
2023/07/15 10:39:42;;;;;;;34.27;31.53;;;;;;;23.50;38.31;95276.22;6272005;27;109004;-68
2023/07/15 10:42:46;;;;;;;32.70;30.00;;;;;;;23.47;38.17;95279.50;6265058;27;109194;-65
2023/07/15 10:45:52;;;;;;;32.60;29.83;;;;;;;23.35;38.35;95277.41;6269053;27;109356;-65
2023/07/15 10:48:55;;;;;;;33.07;30.40;;;;;;;23.34;37.77;95269.72;6263071;27;109093;-65
2023/07/15 10:52:00;;;;;;;;;;;;;;;23.22;38.16;95268.38;6269129;27;109955;-63
2023/07/15 10:55:03;;;;;;;;;;;;;;;23.77;38.32;95261.84;6260372;27;111755;-64
2023/07/15 10:58:08;;;;;;;30.90;28.23;;;;;;;24.17;38.28;95265.25;6256196;27;109149;-65
2023/07/15 11:01:12;;;;;;;30.20;27.67;;;;;;;24.35;38.22;95261.47;6261702;27;109064;-65
2023/07/15 11:04:19;;;;;;;28.47;26.00;;;;;;;24.46;38.66;95265.41;6237356;27;109090;-64
2023/07/15 11:07:25;;;;;;;28.60;26.30;;;;;;;24.33;38.72;95258.31;6270652;27;109136;-64
2023/07/15 11:10:33;;;;;;;27.33;25.03;;;;;;;24.57;38.62;95263.22;6270639;27;110921;-63
2023/07/15 11:13:37;;;;;;;27.23;24.90;;;;;;;24.41;39.18;95260.22;6275662;27;112095;-64
2023/07/15 11:16:41;;;;;;;26.90;24.60;;;;;;;24.45;39.10;95255.81;6264037;27;109230;-65
2023/07/15 11:19:44;;;;;;;25.77;23.50;;;;;;;24.53;39.30;95256.13;6227291;27;109035;-65
2023/07/15 11:22:48;;;;;;;26.30;24.20;;;;;;;24.43;39.43;95251.88;6259355;27;110157;-65
2023/07/15 11:25:51;;;;;;;24.70;22.60;;;;;;;24.31;39.17;95249.84;6263450;27;109065;-63
2023/07/15 11:28:54;;;;;;;25.53;23.43;;;;;;;24.26;39.50;95241.97;6287294;27;108967;-64
2023/07/15 11:32:02;;;;;;;24.20;22.10;;;;;;;24.37;38.72;95237.91;6276041;27;109418;-64
2023/07/15 11:35:12;;;;;;;23.83;21.93;;;;;;;24.32;39.08;95230.00;6286969;27;108986;-64
2023/07/15 11:38:29;;;;;;;23.37;21.47;;;;;;;24.45;39.13;95236.31;6261910;27;109438;-64
2023/07/15 11:41:34;;;;;;;24.50;22.30;;;;;;;24.47;39.04;95226.84;6230961;27;111512;-64
2023/07/15 11:44:37;;;;;;;23.83;21.83;;;;;;;24.29;39.31;95227.19;6230473;27;109384;-64
2023/07/15 11:47:42;;;;;;;22.43;20.57;;;;;;;24.44;39.04;95227.50;6284376;27;109090;-64
2023/07/15 11:50:45;;;;;;;21.43;19.63;;;;;;;24.44;38.63;95230.16;6286571;27;109011;-70
2023/07/15 11:53:53;;;;;;;20.83;19.17;;;;;;;24.46;38.60;95229.84;6255446;27;108775;-70
2023/07/15 11:56:56;;;;;;;20.90;19.10;;;;;;;24.43;38.53;95233.16;6259558;27;109069;-71
2023/07/15 12:00:02;;;;;;;21.67;19.87;;;;;;;24.43;38.03;95231.28;6260939;27;108873;-73
2023/07/15 12:03:08;;;;;;;19.97;18.30;;;;;;;24.49;38.29;95226.53;6271001;27;108939;-73
2023/07/15 12:06:16;;;;;;;20.87;19.17;;;;;;;24.44;38.10;95227.50;6275225;27;109438;-72
2023/07/15 12:09:22;;;;;;;19.80;18.23;;;;;;;24.44;37.93;95226.72;6278237;27;109078;-71
2023/07/15 12:12:25;;;;;;;20.37;18.77;;;;;;;24.38;38.37;95222.63;6242949;27;109052;-71
2023/07/15 12:15:28;;;;;;;18.60;17.20;;;;;;;24.08;38.47;95219.78;6233149;27;109160;-74
2023/07/15 12:18:31;;;;;;;18.40;17.00;;;;;;;23.86;39.25;95222.59;6240949;27;109275;-71
2023/07/15 12:21:34;;;;;;;18.13;16.63;;;;;;;23.78;39.92;95213.44;6256935;27;109309;-70
2023/07/15 12:24:39;;;;;;;17.97;16.57;;;;;;;23.72;39.98;95206.69;6261304;27;110295;-70
2023/07/15 12:27:47;;;;;;;17.20;15.90;;;;;;;23.92;39.50;95215.19;6242270;27;109568;-70
2023/07/15 12:30:50;;;;;;;17.27;15.93;;;;;;;24.07;38.90;95212.09;6260465;27;109036;-71
2023/07/15 12:33:53;;;;;;;17.10;15.67;;;;;;;23.68;40.79;95205.69;6260644;27;109927;-72
2023/07/15 12:36:58;;;;;;;16.93;15.53;;;;;;;23.68;40.80;95205.69;6260292;27;109018;-71
2023/07/15 12:40:03;;;;;;;17.00;15.60;;;;;;;24.01;39.81;95210.66;6230473;27;109399;-71
2023/07/15 12:43:06;;;;;;;16.43;14.93;;;;;;;23.84;40.06;95198.03;6260486;27;109165;-72
2023/07/15 12:46:09;;;;;;;16.47;15.07;;;;;;;23.66;40.89;95193.75;6277714;27;109030;-72
2023/07/15 12:49:12;;;;;;;15.53;14.20;;;;;;;23.90;40.17;95189.56;6267037;27;110166;-65
2023/07/15 12:52:16;;;;;;;18.50;16.70;;;;;;;23.88;40.61;95186.41;6234387;27;109183;-71
2023/07/15 12:55:20;;;;;;;18.20;16.60;;;;;;;23.67;41.14;95176.63;6256731;27;109467;-71
2023/07/15 12:58:24;;;;;;;17.37;16.00;;;;;;;23.63;40.74;95189.81;6270126;27;109079;-72
2023/07/15 13:01:27;;;;;;;17.70;16.13;;;;;;;23.58;41.02;95182.75;6254683;27;108980;-65
2023/07/15 13:04:31;;;;;;;18.60;17.10;;;;;;;23.96;39.85;95179.50;6258478;27;109104;-66
2023/07/15 13:07:34;;;;;;;18.63;17.13;;;;;;;23.74;41.10;95172.41;6266710;27;109327;-66
2023/07/15 13:10:38;;;;;;;18.60;17.10;;;;;;;23.69;41.54;95175.25;6270268;27;108785;-65
2023/07/15 13:13:41;;;;;;;18.47;16.93;;;;;;;23.69;41.12;95171.75;6248170;27;109109;-66
2023/07/15 13:16:45;;;;;;;18.33;16.83;;;;;;;23.99;40.32;95173.50;6259883;27;109091;-66
2023/07/15 13:19:48;;;;;;;17.00;15.57;;;;;;;23.75;41.02;95173.97;6279804;27;109045;-66
2023/07/15 13:22:51;;;;;;;16.93;15.53;;;;;;;23.66;41.51;95175.84;6265327;27;109351;-66
2023/07/15 13:25:55;;;;;;;16.63;15.23;;;;;;;23.89;41.04;95171.97;6247926;27;109503;-66
2023/07/15 13:28:58;;;;;;;17.57;16.27;;;;;;;23.80;40.64;95178.38;6270781;27;112718;-65
2023/07/15 13:32:02;;;;;;;17.43;15.97;;;;;;;23.62;41.70;95182.13;6263822;27;109354;-66
2023/07/15 13:35:05;;;;;;;17.20;15.77;;;;;;;24.01;40.23;95179.34;6256304;27;109138;-66
2023/07/15 13:38:08;;;;;;;17.50;16.10;;;;;;;23.74;40.82;95188.44;6279044;27;109051;-66
2023/07/15 13:41:13;;;;;;;16.53;15.23;;;;;;;23.66;41.21;95178.50;6253135;27;109215;-68
2023/07/15 13:44:16;;;;;;;25.90;23.73;;;;;;;23.84;45.80;95177.44;6259240;27;109563;-68
2023/07/15 13:47:19;;;;;;;27.20;25.10;;;;;;;23.84;48.17;95180.09;6253156;27;109381;-67
2023/07/15 13:50:23;;;;;;;27.60;25.30;;;;;;;24.12;47.24;95177.16;6196786;27;109171;-67
2023/07/15 13:53:26;;;;;;;28.33;26.00;;;;;;;24.23;46.93;95180.31;6188439;28;109743;-68
2023/07/15 13:56:30;;;;;;;28.00;25.60;;;;;;;24.22;46.47;95182.22;6188429;28;109083;-67
2023/07/15 13:59:34;;;;;;;27.93;25.70;;;;;;;23.90;47.05;95180.75;6173613;28;109495;-68
2023/07/15 14:02:37;;;;;;;30.37;27.87;;;;;;;23.69;46.95;95179.78;6200426;28;109006;-68